• Join FlightAware (Why Join?)
  • Login
  • US Flag 
06:06AM EDT


 

Airport Tracker/Info


-or-


 

Live Flight TrackerFlight Track Log ✈ SWA3675 ✈ 2013-Apr-26 ✈ KBWI - KORF

Flight Track Log - Related Links

Times and Time Zones

All times are in EDT time to prevent confusion due to time zone crossing. See the SWA3675 flight status page for this flight to view local times or setup timezone preferences in your user account.

Time Position Orientation Groundspeed Altitude Reporting Facility
EDT Latitude Longitude Course Direction KTS MPH feet Rate Location/Type
08:02PM 39.1833 -76.7000 207° Southwest 161 185 1,600  Level Potomac TRACON
08:03PM 39.1333 -76.7333 207° Southwest 220 253 3,900 2,460 Climbing Potomac TRACON
08:04PM 39.0833 -76.6667 134° Southeast 265 305 6,600 2,940 Climbing Potomac TRACON
08:05PM 39.0167 -76.6000 142° Southeast 303 349 9,900 3,000 Climbing Potomac TRACON
08:06PM 38.9500 -76.5167 136° Southeast 358 412 12,700 2,040 Climbing Potomac TRACON
08:07PM 38.8667 -76.5333 189° South 339 390 14,000 420 Climbing Potomac TRACON
08:09PM 38.7044 -76.6319 205° Southwest 342 394 14,000  Level Washington Center
08:10PM 38.6144 -76.6889 206° Southwest 354 407 14,000  Level Washington Center
08:11PM 38.5222 -76.7247 197° South 354 407 14,000  Level Washington Center
08:12PM 38.4161 -76.7100 174° South 354 407 14,000  Level Washington Center
08:13PM 38.3142 -76.6978 175° South 367 422 14,000 -300 Level Washington Center
08:14PM 38.2142 -76.6806 172° South 367 422 13,400 -840 Descending Washington Center
08:15PM 38.1164 -76.6369 161° South 367 422 12,400 -1,020 Descending Washington Center
08:16PM 38.0211 -76.5828 156° South 367 422 11,400 -1,020 Descending Washington Center
08:17PM 37.9297 -76.5264 154° Southeast 372 428 10,400 -780 Descending Washington Center
08:18PM 37.8508 -76.4833 157° South 363 418 10,000 -300 Descending Washington Center
08:18PM 37.7928 -76.4511 156° South 359 413 10,000  Level Washington Center
08:19PM 37.7511 -76.4192 149° Southeast 361 415 10,000  Level Washington Center
08:19PM 37.7033 -76.3975 160° South 356 410 10,000  Level Washington Center
08:20PM 37.6575 -76.3814 164° South 356 410 10,000  Level Washington Center
08:20PM 37.6075 -76.3731 172° South 351 404 10,000  Level Washington Center
08:21PM 37.5597 -76.3594 167° South 351 404 10,000  Level Washington Center
08:21PM 37.4972 -76.3483 172° South 351 404 10,000 -120 Level Washington Center
08:22PM 37.4658 -76.3350 161° South 356 410 9,900 -120 Descending Washington Center
08:22PM 37.4117 -76.3292 175° South 311 358 9,900 -600 Level Washington Center
08:23PM 37.3783 -76.3158 162° South 341 392 9,300 -1,200 Descending Washington Center
08:23PM 37.3306 -76.3075 172° South 298 343 8,700 -1,020 Descending Washington Center
08:24PM 37.2992 -76.2994 168° South 316 364 8,300 -1,020 Descending Washington Center
08:24PM 37.2514 -76.2936 174° South 289 333 7,700 -1,200 Descending Washington Center
08:25PM 37.2181 -76.2881 172° South 303 349 7,100 -1,320 Descending Washington Center
08:25PM 37.1658 -76.2956 187° South 278 320 6,300 -1,140 Descending Washington Center
08:26PM 37.1408 -76.2928 175° South 289 333 6,000 -1,020 Descending Washington Center
08:26PM 37.0928 -76.3053 192° South 275 316 5,300 -1,020 Descending Washington Center
08:27PM 37.0656 -76.3025 175° South 283 326 5,000 -1,020 Descending Washington Center
08:27PM 37.0092 -76.3150 190° South 272 313 4,300 -780 Descending Washington Center
08:28PM 36.9425 -76.3272 188° South 234 269 3,800 -540 Descending Washington Center